Terminal Aerodrome Forecast
Issued by NWS Bismarck, ND

Home | Current Version | Previous Version | Graphics & Text | Print | Product List | Glossary On
Versions: 1 2 3 4 5 6 7 8 9 10 11 12 13 14 15 16
621
FTUS43 KBIS 041340 AAA
TAFBIS
TAF AMD
KBIS 041340Z 0414/0512 31004KT P6SM SCT025
     FM041800 25004KT P6SM SCT030
     FM042200 19005KT P6SM BKN150
     FM050900 24006KT 5SM -SN BR OVC025=

USA.gov is the U.S. government's official web portal to all federal, state and local government web resources and services.